sensor_id;sensor_type;location;lat;lon;timestamp;temperature;humidity
10123;DHT22;5101;49.038;8.710;2023-08-06T00:02:19;17.00;99.90
10123;DHT22;5101;49.038;8.710;2023-08-06T00:04:44;16.90;99.90
10123;DHT22;5101;49.038;8.710;2023-08-06T00:07:10;16.90;99.90
10123;DHT22;5101;49.038;8.710;2023-08-06T00:09:35;16.80;99.90
10123;DHT22;5101;49.038;8.710;2023-08-06T00:12:01;16.80;99.90
10123;DHT22;5101;49.038;8.710;2023-08-06T00:14:26;16.80;99.90
10123;DHT22;5101;49.038;8.710;2023-08-06T00:16:51;16.80;99.90
10123;DHT22;5101;49.038;8.710;2023-08-06T00:19:17;16.70;99.90
10123;DHT22;5101;49.038;8.710;2023-08-06T00:21:42;16.70;99.90
10123;DHT22;5101;49.038;8.710;2023-08-06T00:24:08;16.70;99.90
10123;DHT22;5101;49.038;8.710;2023-08-06T00:26:34;16.80;99.90
10123;DHT22;5101;49.038;8.710;2023-08-06T00:28:59;16.70;99.90
10123;DHT22;5101;49.038;8.710;2023-08-06T00:31:24;16.80;99.90
10123;DHT22;5101;49.038;8.710;2023-08-06T00:33:50;16.70;99.90
10123;DHT22;5101;49.038;8.710;2023-08-06T00:36:15;16.70;99.90
10123;DHT22;5101;49.038;8.710;2023-08-06T00:38:41;16.70;99.90
10123;DHT22;5101;49.038;8.710;2023-08-06T00:41:06;16.70;99.90
10123;DHT22;5101;49.038;8.710;2023-08-06T00:43:32;16.70;99.90
10123;DHT22;5101;49.038;8.710;2023-08-06T00:45:58;16.70;99.90
10123;DHT22;5101;49.038;8.710;2023-08-06T00:48:23;16.70;99.90
10123;DHT22;5101;49.038;8.710;2023-08-06T00:50:49;16.70;99.90
10123;DHT22;5101;49.038;8.710;2023-08-06T00:53:14;16.70;99.90
10123;DHT22;5101;49.038;8.710;2023-08-06T00:55:40;16.60;99.90
10123;DHT22;5101;49.038;8.710;2023-08-06T00:58:07;16.50;99.90
10123;DHT22;5101;49.038;8.710;2023-08-06T01:00:32;16.50;99.90
10123;DHT22;5101;49.038;8.710;2023-08-06T01:02:58;16.50;99.90
10123;DHT22;5101;49.038;8.710;2023-08-06T01:05:24;16.40;99.90
10123;DHT22;5101;49.038;8.710;2023-08-06T01:11:14;16.40;99.90
10123;DHT22;5101;49.038;8.710;2023-08-06T01:13:47;16.40;99.90
10123;DHT22;5101;49.038;8.710;2023-08-06T01:16:18;16.40;99.90
10123;DHT22;5101;49.038;8.710;2023-08-06T01:18:44;16.40;99.90
10123;DHT22;5101;49.038;8.710;2023-08-06T01:21:15;16.40;99.90
10123;DHT22;5101;49.038;8.710;2023-08-06T01:23:42;16.40;99.90
10123;DHT22;5101;49.038;8.710;2023-08-06T01:29:06;16.30;99.90
10123;DHT22;5101;49.038;8.710;2023-08-06T01:31:37;16.30;99.90
10123;DHT22;5101;49.038;8.710;2023-08-06T01:34:06;16.30;99.90
10123;DHT22;5101;49.038;8.710;2023-08-06T01:36:32;16.40;99.90
10123;DHT22;5101;49.038;8.710;2023-08-06T01:38:59;16.30;99.90
10123;DHT22;5101;49.038;8.710;2023-08-06T01:41:25;16.30;99.90
10123;DHT22;5101;49.038;8.710;2023-08-06T01:43:50;16.20;99.90
10123;DHT22;5101;49.038;8.710;2023-08-06T01:46:16;16.20;99.90
10123;DHT22;5101;49.038;8.710;2023-08-06T01:48:41;16.10;99.90
10123;DHT22;5101;49.038;8.710;2023-08-06T01:51:07;16.10;99.90
10123;DHT22;5101;49.038;8.710;2023-08-06T01:53:33;16.10;99.90
10123;DHT22;5101;49.038;8.710;2023-08-06T01:55:59;16.10;99.90
10123;DHT22;5101;49.038;8.710;2023-08-06T01:58:24;16.10;99.90
10123;DHT22;5101;49.038;8.710;2023-08-06T02:00:50;16.10;99.90
10123;DHT22;5101;49.038;8.710;2023-08-06T02:03:15;16.10;99.90
10123;DHT22;5101;49.038;8.710;2023-08-06T02:05:42;16.10;99.90
10123;DHT22;5101;49.038;8.710;2023-08-06T02:08:07;16.00;99.90
10123;DHT22;5101;49.038;8.710;2023-08-06T02:10:33;16.00;99.90
10123;DHT22;5101;49.038;8.710;2023-08-06T02:12:59;16.00;99.90
10123;DHT22;5101;49.038;8.710;2023-08-06T02:15:24;16.00;99.90
10123;DHT22;5101;49.038;8.710;2023-08-06T02:17:50;16.00;99.90
10123;DHT22;5101;49.038;8.710;2023-08-06T02:20:15;16.00;99.90
10123;DHT22;5101;49.038;8.710;2023-08-06T02:22:41;16.00;99.90
10123;DHT22;5101;49.038;8.710;2023-08-06T02:25:06;16.00;99.90
10123;DHT22;5101;49.038;8.710;2023-08-06T02:27:32;15.90;99.90
10123;DHT22;5101;49.038;8.710;2023-08-06T02:29:57;15.90;99.90
10123;DHT22;5101;49.038;8.710;2023-08-06T02:32:23;15.90;99.90
10123;DHT22;5101;49.038;8.710;2023-08-06T02:34:48;15.90;99.90
10123;DHT22;5101;49.038;8.710;2023-08-06T02:37:14;16.00;99.90
10123;DHT22;5101;49.038;8.710;2023-08-06T02:39:39;16.00;99.90
10123;DHT22;5101;49.038;8.710;2023-08-06T02:42:07;15.90;99.90
10123;DHT22;5101;49.038;8.710;2023-08-06T02:44:33;15.90;99.90
10123;DHT22;5101;49.038;8.710;2023-08-06T02:46:59;15.90;99.90
10123;DHT22;5101;49.038;8.710;2023-08-06T02:49:25;15.90;99.90
10123;DHT22;5101;49.038;8.710;2023-08-06T02:51:50;15.90;99.90
10123;DHT22;5101;49.038;8.710;2023-08-06T02:54:16;15.80;99.90
10123;DHT22;5101;49.038;8.710;2023-08-06T02:56:47;15.90;99.90
10123;DHT22;5101;49.038;8.710;2023-08-06T02:59:13;15.90;99.90
10123;DHT22;5101;49.038;8.710;2023-08-06T03:01:39;15.90;99.90
10123;DHT22;5101;49.038;8.710;2023-08-06T03:04:04;15.90;99.90
10123;DHT22;5101;49.038;8.710;2023-08-06T03:06:30;15.90;99.90
10123;DHT22;5101;49.038;8.710;2023-08-06T03:08:56;15.80;99.90
10123;DHT22;5101;49.038;8.710;2023-08-06T03:11:21;15.80;99.90
10123;DHT22;5101;49.038;8.710;2023-08-06T03:13:47;15.80;99.90
10123;DHT22;5101;49.038;8.710;2023-08-06T03:16:13;15.70;99.90
10123;DHT22;5101;49.038;8.710;2023-08-06T03:18:39;15.70;99.90
10123;DHT22;5101;49.038;8.710;2023-08-06T03:21:04;15.70;99.90
10123;DHT22;5101;49.038;8.710;2023-08-06T03:23:30;15.70;99.90
10123;DHT22;5101;49.038;8.710;2023-08-06T03:25:55;15.70;99.90
10123;DHT22;5101;49.038;8.710;2023-08-06T03:28:21;15.70;99.90
10123;DHT22;5101;49.038;8.710;2023-08-06T03:30:47;15.60;99.90
10123;DHT22;5101;49.038;8.710;2023-08-06T03:33:13;15.60;99.90
10123;DHT22;5101;49.038;8.710;2023-08-06T03:35:39;15.60;99.90
10123;DHT22;5101;49.038;8.710;2023-08-06T03:38:05;15.60;99.90
10123;DHT22;5101;49.038;8.710;2023-08-06T03:40:30;15.60;99.90
10123;DHT22;5101;49.038;8.710;2023-08-06T03:42:56;15.60;99.90
10123;DHT22;5101;49.038;8.710;2023-08-06T03:45:21;15.50;99.90
10123;DHT22;5101;49.038;8.710;2023-08-06T03:47:47;15.60;99.90
10123;DHT22;5101;49.038;8.710;2023-08-06T03:50:12;15.60;99.90
10123;DHT22;5101;49.038;8.710;2023-08-06T03:52:38;15.60;99.90
10123;DHT22;5101;49.038;8.710;2023-08-06T03:55:04;15.50;99.90
10123;DHT22;5101;49.038;8.710;2023-08-06T03:57:29;15.50;99.90
10123;DHT22;5101;49.038;8.710;2023-08-06T03:59:55;15.50;99.90
10123;DHT22;5101;49.038;8.710;2023-08-06T04:02:20;15.50;99.90
10123;DHT22;5101;49.038;8.710;2023-08-06T04:04:46;15.50;99.90
10123;DHT22;5101;49.038;8.710;2023-08-06T04:07:11;15.50;99.90
10123;DHT22;5101;49.038;8.710;2023-08-06T04:09:52;15.50;99.90
10123;DHT22;5101;49.038;8.710;2023-08-06T04:12:18;15.50;99.90
10123;DHT22;5101;49.038;8.710;2023-08-06T04:14:43;15.50;99.90
10123;DHT22;5101;49.038;8.710;2023-08-06T04:17:09;15.40;99.90
10123;DHT22;5101;49.038;8.710;2023-08-06T04:19:34;15.50;99.90
10123;DHT22;5101;49.038;8.710;2023-08-06T04:22:00;15.50;99.90
10123;DHT22;5101;49.038;8.710;2023-08-06T04:24:25;15.50;99.90
10123;DHT22;5101;49.038;8.710;2023-08-06T04:26:51;15.50;99.90
10123;DHT22;5101;49.038;8.710;2023-08-06T04:29:16;15.40;99.90
10123;DHT22;5101;49.038;8.710;2023-08-06T04:31:42;15.40;99.90
10123;DHT22;5101;49.038;8.710;2023-08-06T04:34:07;15.40;99.90
10123;DHT22;5101;49.038;8.710;2023-08-06T04:36:34;15.50;99.90
10123;DHT22;5101;49.038;8.710;2023-08-06T04:39:00;15.50;99.90
10123;DHT22;5101;49.038;8.710;2023-08-06T04:41:25;15.40;99.90
10123;DHT22;5101;49.038;8.710;2023-08-06T04:43:51;15.40;99.90
10123;DHT22;5101;49.038;8.710;2023-08-06T04:46:16;15.40;99.90
10123;DHT22;5101;49.038;8.710;2023-08-06T04:48:41;15.40;99.90
10123;DHT22;5101;49.038;8.710;2023-08-06T04:51:07;15.40;99.90
10123;DHT22;5101;49.038;8.710;2023-08-06T04:53:32;15.40;99.90
10123;DHT22;5101;49.038;8.710;2023-08-06T04:55:58;15.40;99.90
10123;DHT22;5101;49.038;8.710;2023-08-06T04:58:23;15.40;99.90
10123;DHT22;5101;49.038;8.710;2023-08-06T05:00:49;15.40;99.90
10123;DHT22;5101;49.038;8.710;2023-08-06T05:03:15;15.40;99.90
10123;DHT22;5101;49.038;8.710;2023-08-06T05:05:41;15.30;99.90
10123;DHT22;5101;49.038;8.710;2023-08-06T05:08:07;15.30;99.90
10123;DHT22;5101;49.038;8.710;2023-08-06T05:10:32;15.30;99.90
10123;DHT22;5101;49.038;8.710;2023-08-06T05:12:58;15.30;99.90
10123;DHT22;5101;49.038;8.710;2023-08-06T05:15:23;15.30;99.90
10123;DHT22;5101;49.038;8.710;2023-08-06T05:17:50;15.40;99.90
10123;DHT22;5101;49.038;8.710;2023-08-06T05:20:16;15.40;99.90
10123;DHT22;5101;49.038;8.710;2023-08-06T05:22:43;15.40;99.90
10123;DHT22;5101;49.038;8.710;2023-08-06T05:25:08;15.40;99.90
10123;DHT22;5101;49.038;8.710;2023-08-06T05:27:34;15.40;99.90
10123;DHT22;5101;49.038;8.710;2023-08-06T05:30:00;15.40;99.90
10123;DHT22;5101;49.038;8.710;2023-08-06T05:32:25;15.40;99.90
10123;DHT22;5101;49.038;8.710;2023-08-06T05:34:51;15.50;99.90
10123;DHT22;5101;49.038;8.710;2023-08-06T05:37:16;15.50;99.90
10123;DHT22;5101;49.038;8.710;2023-08-06T05:39:42;15.50;99.90
10123;DHT22;5101;49.038;8.710;2023-08-06T05:42:07;15.50;99.90
10123;DHT22;5101;49.038;8.710;2023-08-06T05:44:33;15.50;99.90
10123;DHT22;5101;49.038;8.710;2023-08-06T05:46:58;15.60;99.90
10123;DHT22;5101;49.038;8.710;2023-08-06T05:49:24;15.60;99.90
10123;DHT22;5101;49.038;8.710;2023-08-06T05:51:50;15.60;99.90
10123;DHT22;5101;49.038;8.710;2023-08-06T05:54:15;15.60;99.90
10123;DHT22;5101;49.038;8.710;2023-08-06T05:56:41;15.60;99.90
10123;DHT22;5101;49.038;8.710;2023-08-06T05:59:06;15.60;99.90
10123;DHT22;5101;49.038;8.710;2023-08-06T06:01:32;15.60;99.90
10123;DHT22;5101;49.038;8.710;2023-08-06T06:03:57;15.60;99.90
10123;DHT22;5101;49.038;8.710;2023-08-06T06:06:23;15.70;99.90
10123;DHT22;5101;49.038;8.710;2023-08-06T06:08:48;15.70;99.90
10123;DHT22;5101;49.038;8.710;2023-08-06T06:11:14;15.70;99.90
10123;DHT22;5101;49.038;8.710;2023-08-06T06:13:39;15.70;99.90
10123;DHT22;5101;49.038;8.710;2023-08-06T06:16:05;15.60;99.90
10123;DHT22;5101;49.038;8.710;2023-08-06T06:18:30;15.60;99.90
10123;DHT22;5101;49.038;8.710;2023-08-06T06:20:56;15.60;99.90
10123;DHT22;5101;49.038;8.710;2023-08-06T06:23:21;15.60;99.90
10123;DHT22;5101;49.038;8.710;2023-08-06T06:25:48;15.60;99.90
10123;DHT22;5101;49.038;8.710;2023-08-06T06:28:14;15.60;99.90
10123;DHT22;5101;49.038;8.710;2023-08-06T06:30:41;15.60;99.90
10123;DHT22;5101;49.038;8.710;2023-08-06T06:33:07;15.60;99.90
10123;DHT22;5101;49.038;8.710;2023-08-06T06:35:32;15.60;99.90
10123;DHT22;5101;49.038;8.710;2023-08-06T06:37:58;15.60;99.90
10123;DHT22;5101;49.038;8.710;2023-08-06T06:40:23;15.60;99.90
10123;DHT22;5101;49.038;8.710;2023-08-06T06:42:49;15.60;99.90
10123;DHT22;5101;49.038;8.710;2023-08-06T06:45:14;15.50;99.90
10123;DHT22;5101;49.038;8.710;2023-08-06T06:47:40;15.60;99.90
10123;DHT22;5101;49.038;8.710;2023-08-06T06:50:05;15.60;99.90
10123;DHT22;5101;49.038;8.710;2023-08-06T06:52:31;15.60;99.90
10123;DHT22;5101;49.038;8.710;2023-08-06T06:54:57;15.60;99.90
10123;DHT22;5101;49.038;8.710;2023-08-06T06:57:22;15.60;99.90
10123;DHT22;5101;49.038;8.710;2023-08-06T06:59:48;15.70;99.90
10123;DHT22;5101;49.038;8.710;2023-08-06T07:02:13;15.60;99.90
10123;DHT22;5101;49.038;8.710;2023-08-06T07:04:39;15.70;99.90
10123;DHT22;5101;49.038;8.710;2023-08-06T07:07:04;15.70;99.90
10123;DHT22;5101;49.038;8.710;2023-08-06T07:09:30;15.80;99.90
10123;DHT22;5101;49.038;8.710;2023-08-06T07:11:55;15.80;99.90
10123;DHT22;5101;49.038;8.710;2023-08-06T07:14:21;15.80;99.90
10123;DHT22;5101;49.038;8.710;2023-08-06T07:16:46;15.80;99.90
10123;DHT22;5101;49.038;8.710;2023-08-06T07:19:12;15.90;99.90
10123;DHT22;5101;49.038;8.710;2023-08-06T07:21:37;15.90;99.90
10123;DHT22;5101;49.038;8.710;2023-08-06T07:24:03;15.90;99.90
10123;DHT22;5101;49.038;8.710;2023-08-06T07:26:28;16.00;99.90
10123;DHT22;5101;49.038;8.710;2023-08-06T07:28:54;16.00;99.90
10123;DHT22;5101;49.038;8.710;2023-08-06T07:31:19;16.10;99.90
10123;DHT22;5101;49.038;8.710;2023-08-06T07:33:45;16.20;99.90
10123;DHT22;5101;49.038;8.710;2023-08-06T07:36:12;16.20;99.90
10123;DHT22;5101;49.038;8.710;2023-08-06T07:38:38;16.30;99.90
10123;DHT22;5101;49.038;8.710;2023-08-06T07:41:10;16.30;99.90
10123;DHT22;5101;49.038;8.710;2023-08-06T07:43:35;16.30;99.90
10123;DHT22;5101;49.038;8.710;2023-08-06T07:46:01;16.30;99.90
10123;DHT22;5101;49.038;8.710;2023-08-06T07:48:27;16.40;99.90
10123;DHT22;5101;49.038;8.710;2023-08-06T07:50:57;16.30;99.90
10123;DHT22;5101;49.038;8.710;2023-08-06T07:53:23;16.40;99.90
10123;DHT22;5101;49.038;8.710;2023-08-06T07:55:53;16.40;99.90
10123;DHT22;5101;49.038;8.710;2023-08-06T07:58:19;16.50;99.90
10123;DHT22;5101;49.038;8.710;2023-08-06T08:00:46;16.50;99.90
10123;DHT22;5101;49.038;8.710;2023-08-06T08:03:12;16.50;99.90
10123;DHT22;5101;49.038;8.710;2023-08-06T08:05:44;16.50;99.90
10123;DHT22;5101;49.038;8.710;2023-08-06T08:08:10;16.60;99.90
10123;DHT22;5101;49.038;8.710;2023-08-06T08:10:36;16.60;99.90
10123;DHT22;5101;49.038;8.710;2023-08-06T08:13:03;16.70;99.90
10123;DHT22;5101;49.038;8.710;2023-08-06T08:15:30;16.80;99.90
10123;DHT22;5101;49.038;8.710;2023-08-06T08:17:56;16.90;99.90
10123;DHT22;5101;49.038;8.710;2023-08-06T08:20:21;17.00;99.90
10123;DHT22;5101;49.038;8.710;2023-08-06T08:22:47;17.10;99.90
10123;DHT22;5101;49.038;8.710;2023-08-06T08:25:13;17.20;99.90
10123;DHT22;5101;49.038;8.710;2023-08-06T08:27:39;17.30;99.90
10123;DHT22;5101;49.038;8.710;2023-08-06T08:30:05;17.30;99.90
10123;DHT22;5101;49.038;8.710;2023-08-06T08:32:31;17.40;99.90
10123;DHT22;5101;49.038;8.710;2023-08-06T08:34:56;17.30;99.90
10123;DHT22;5101;49.038;8.710;2023-08-06T08:37:23;17.30;99.90
10123;DHT22;5101;49.038;8.710;2023-08-06T08:39:48;17.40;99.90
10123;DHT22;5101;49.038;8.710;2023-08-06T08:42:15;17.40;99.90
10123;DHT22;5101;49.038;8.710;2023-08-06T08:44:42;17.40;99.90
10123;DHT22;5101;49.038;8.710;2023-08-06T08:47:08;17.40;99.90
10123;DHT22;5101;49.038;8.710;2023-08-06T08:49:35;17.40;99.90
10123;DHT22;5101;49.038;8.710;2023-08-06T08:52:01;17.40;99.90
10123;DHT22;5101;49.038;8.710;2023-08-06T08:54:28;17.40;99.90
10123;DHT22;5101;49.038;8.710;2023-08-06T08:56:56;17.40;99.90
10123;DHT22;5101;49.038;8.710;2023-08-06T08:59:22;17.50;99.90
10123;DHT22;5101;49.038;8.710;2023-08-06T09:01:48;17.40;99.90
10123;DHT22;5101;49.038;8.710;2023-08-06T09:04:18;17.40;99.90
10123;DHT22;5101;49.038;8.710;2023-08-06T09:06:47;17.40;99.90
10123;DHT22;5101;49.038;8.710;2023-08-06T09:09:17;17.30;99.90
10123;DHT22;5101;49.038;8.710;2023-08-06T09:11:47;17.40;99.90
10123;DHT22;5101;49.038;8.710;2023-08-06T09:14:14;17.40;99.90
10123;DHT22;5101;49.038;8.710;2023-08-06T09:16:40;17.30;99.90
10123;DHT22;5101;49.038;8.710;2023-08-06T09:19:09;17.30;99.90
10123;DHT22;5101;49.038;8.710;2023-08-06T09:21:42;17.40;99.90
10123;DHT22;5101;49.038;8.710;2023-08-06T09:24:12;17.50;99.90
10123;DHT22;5101;49.038;8.710;2023-08-06T09:26:43;17.50;99.90
10123;DHT22;5101;49.038;8.710;2023-08-06T09:29:09;17.60;99.90
10123;DHT22;5101;49.038;8.710;2023-08-06T09:31:42;17.60;99.90
10123;DHT22;5101;49.038;8.710;2023-08-06T09:34:15;17.70;99.90
10123;DHT22;5101;49.038;8.710;2023-08-06T09:36:52;17.80;99.90
10123;DHT22;5101;49.038;8.710;2023-08-06T09:39:20;17.90;99.90
10123;DHT22;5101;49.038;8.710;2023-08-06T09:41:46;18.00;99.90
10123;DHT22;5101;49.038;8.710;2023-08-06T09:44:16;18.10;99.90
10123;DHT22;5101;49.038;8.710;2023-08-06T09:46:46;18.20;99.90
10123;DHT22;5101;49.038;8.710;2023-08-06T09:49:12;18.30;99.90
10123;DHT22;5101;49.038;8.710;2023-08-06T09:51:38;18.30;99.90
10123;DHT22;5101;49.038;8.710;2023-08-06T09:54:05;18.20;99.90
10123;DHT22;5101;49.038;8.710;2023-08-06T09:56:33;18.30;99.90
10123;DHT22;5101;49.038;8.710;2023-08-06T09:59:04;18.20;99.90
10123;DHT22;5101;49.038;8.710;2023-08-06T10:01:31;18.20;99.90
10123;DHT22;5101;49.038;8.710;2023-08-06T10:03:57;18.10;99.90
10123;DHT22;5101;49.038;8.710;2023-08-06T10:06:24;18.10;99.90
10123;DHT22;5101;49.038;8.710;2023-08-06T10:08:49;18.00;99.90
10123;DHT22;5101;49.038;8.710;2023-08-06T10:11:17;17.90;99.90
10123;DHT22;5101;49.038;8.710;2023-08-06T10:13:44;17.90;99.90
10123;DHT22;5101;49.038;8.710;2023-08-06T10:16:10;17.80;99.90
10123;DHT22;5101;49.038;8.710;2023-08-06T10:18:37;17.70;99.90
10123;DHT22;5101;49.038;8.710;2023-08-06T10:21:08;17.60;99.90
10123;DHT22;5101;49.038;8.710;2023-08-06T10:23:35;17.60;99.90
10123;DHT22;5101;49.038;8.710;2023-08-06T10:26:01;17.50;99.90
10123;DHT22;5101;49.038;8.710;2023-08-06T10:28:39;17.50;99.90
10123;DHT22;5101;49.038;8.710;2023-08-06T10:31:05;17.50;99.90
10123;DHT22;5101;49.038;8.710;2023-08-06T10:33:45;17.40;99.90
10123;DHT22;5101;49.038;8.710;2023-08-06T10:36:11;17.30;99.90
10123;DHT22;5101;49.038;8.710;2023-08-06T10:38:50;17.30;99.90
10123;DHT22;5101;49.038;8.710;2023-08-06T10:41:27;17.20;99.90
10123;DHT22;5101;49.038;8.710;2023-08-06T10:43:52;17.10;99.90
10123;DHT22;5101;49.038;8.710;2023-08-06T10:46:30;17.10;99.90
10123;DHT22;5101;49.038;8.710;2023-08-06T10:48:55;16.90;99.90
10123;DHT22;5101;49.038;8.710;2023-08-06T10:51:21;16.90;99.90
10123;DHT22;5101;49.038;8.710;2023-08-06T10:53:48;16.90;99.90
10123;DHT22;5101;49.038;8.710;2023-08-06T10:56:16;16.80;99.90
10123;DHT22;5101;49.038;8.710;2023-08-06T10:58:42;16.80;99.90
10123;DHT22;5101;49.038;8.710;2023-08-06T11:01:08;16.70;99.90
10123;DHT22;5101;49.038;8.710;2023-08-06T11:03:34;16.80;99.90
10123;DHT22;5101;49.038;8.710;2023-08-06T11:06:00;16.70;99.90
10123;DHT22;5101;49.038;8.710;2023-08-06T11:08:33;16.70;99.90
10123;DHT22;5101;49.038;8.710;2023-08-06T11:11:12;16.70;99.90
10123;DHT22;5101;49.038;8.710;2023-08-06T11:13:48;16.70;99.90
10123;DHT22;5101;49.038;8.710;2023-08-06T11:16:17;16.60;99.90
10123;DHT22;5101;49.038;8.710;2023-08-06T11:18:43;16.50;99.90
10123;DHT22;5101;49.038;8.710;2023-08-06T11:21:09;16.40;99.90
10123;DHT22;5101;49.038;8.710;2023-08-06T11:23:35;16.40;99.90
10123;DHT22;5101;49.038;8.710;2023-08-06T11:26:01;16.40;99.90
10123;DHT22;5101;49.038;8.710;2023-08-06T11:28:27;16.30;99.90
10123;DHT22;5101;49.038;8.710;2023-08-06T11:30:53;16.30;99.90
10123;DHT22;5101;49.038;8.710;2023-08-06T11:33:24;16.20;99.90
10123;DHT22;5101;49.038;8.710;2023-08-06T11:35:57;16.10;99.90
10123;DHT22;5101;49.038;8.710;2023-08-06T11:38:29;16.10;99.90
10123;DHT22;5101;49.038;8.710;2023-08-06T11:40:56;16.00;99.90
10123;DHT22;5101;49.038;8.710;2023-08-06T11:43:22;15.90;99.90
10123;DHT22;5101;49.038;8.710;2023-08-06T11:45:48;15.90;99.90
10123;DHT22;5101;49.038;8.710;2023-08-06T11:48:14;15.80;99.90
10123;DHT22;5101;49.038;8.710;2023-08-06T11:50:40;15.80;99.90
10123;DHT22;5101;49.038;8.710;2023-08-06T11:53:06;15.80;99.90
10123;DHT22;5101;49.038;8.710;2023-08-06T11:55:32;15.70;99.90
10123;DHT22;5101;49.038;8.710;2023-08-06T11:57:57;15.70;99.90
10123;DHT22;5101;49.038;8.710;2023-08-06T12:00:25;15.70;99.90
10123;DHT22;5101;49.038;8.710;2023-08-06T12:02:51;15.70;99.90
10123;DHT22;5101;49.038;8.710;2023-08-06T12:05:18;15.60;99.90
10123;DHT22;5101;49.038;8.710;2023-08-06T12:07:50;15.60;99.90
10123;DHT22;5101;49.038;8.710;2023-08-06T12:10:17;15.60;99.90
10123;DHT22;5101;49.038;8.710;2023-08-06T12:12:42;15.60;99.90
10123;DHT22;5101;49.038;8.710;2023-08-06T12:15:09;15.60;99.90
10123;DHT22;5101;49.038;8.710;2023-08-06T12:17:35;15.60;99.90
10123;DHT22;5101;49.038;8.710;2023-08-06T12:20:02;15.60;99.90
10123;DHT22;5101;49.038;8.710;2023-08-06T12:22:29;15.60;99.90
10123;DHT22;5101;49.038;8.710;2023-08-06T12:25:00;15.70;99.90
10123;DHT22;5101;49.038;8.710;2023-08-06T12:27:26;15.70;99.90
10123;DHT22;5101;49.038;8.710;2023-08-06T12:29:51;15.70;99.90
10123;DHT22;5101;49.038;8.710;2023-08-06T12:32:17;15.80;99.90
10123;DHT22;5101;49.038;8.710;2023-08-06T12:34:43;15.80;99.90
10123;DHT22;5101;49.038;8.710;2023-08-06T12:37:09;15.80;99.90
10123;DHT22;5101;49.038;8.710;2023-08-06T12:39:37;15.80;99.90
10123;DHT22;5101;49.038;8.710;2023-08-06T12:42:04;15.80;99.90
10123;DHT22;5101;49.038;8.710;2023-08-06T12:44:30;15.80;99.90
10123;DHT22;5101;49.038;8.710;2023-08-06T12:46:56;15.80;99.90
10123;DHT22;5101;49.038;8.710;2023-08-06T12:49:22;15.80;99.90
10123;DHT22;5101;49.038;8.710;2023-08-06T12:51:49;15.90;99.90
10123;DHT22;5101;49.038;8.710;2023-08-06T12:54:16;15.90;99.90
10123;DHT22;5101;49.038;8.710;2023-08-06T12:56:42;15.90;99.90
10123;DHT22;5101;49.038;8.710;2023-08-06T12:59:08;15.90;99.90
10123;DHT22;5101;49.038;8.710;2023-08-06T13:01:33;15.90;99.90
10123;DHT22;5101;49.038;8.710;2023-08-06T13:04:00;16.00;99.90
10123;DHT22;5101;49.038;8.710;2023-08-06T13:06:25;16.00;99.90
10123;DHT22;5101;49.038;8.710;2023-08-06T13:08:51;16.00;99.90
10123;DHT22;5101;49.038;8.710;2023-08-06T13:11:16;16.00;99.90
10123;DHT22;5101;49.038;8.710;2023-08-06T13:13:42;16.10;99.90
10123;DHT22;5101;49.038;8.710;2023-08-06T13:16:08;16.00;99.90
10123;DHT22;5101;49.038;8.710;2023-08-06T13:18:33;16.10;99.90
10123;DHT22;5101;49.038;8.710;2023-08-06T13:20:59;16.10;99.90
10123;DHT22;5101;49.038;8.710;2023-08-06T13:23:24;16.00;99.90
10123;DHT22;5101;49.038;8.710;2023-08-06T13:25:50;16.00;99.90
10123;DHT22;5101;49.038;8.710;2023-08-06T13:28:15;16.00;99.90
10123;DHT22;5101;49.038;8.710;2023-08-06T13:30:41;16.10;99.90
10123;DHT22;5101;49.038;8.710;2023-08-06T13:33:10;16.10;99.90
10123;DHT22;5101;49.038;8.710;2023-08-06T13:35:35;16.20;99.90
10123;DHT22;5101;49.038;8.710;2023-08-06T13:38:01;16.30;99.90
10123;DHT22;5101;49.038;8.710;2023-08-06T13:40:30;16.40;99.90
10123;DHT22;5101;49.038;8.710;2023-08-06T13:42:55;16.40;99.90
10123;DHT22;5101;49.038;8.710;2023-08-06T13:45:21;16.50;99.90
10123;DHT22;5101;49.038;8.710;2023-08-06T13:47:47;16.50;99.90
10123;DHT22;5101;49.038;8.710;2023-08-06T13:50:13;16.60;99.90
10123;DHT22;5101;49.038;8.710;2023-08-06T13:52:38;16.60;99.90
10123;DHT22;5101;49.038;8.710;2023-08-06T13:55:04;16.70;99.90
10123;DHT22;5101;49.038;8.710;2023-08-06T13:57:30;16.70;99.90
10123;DHT22;5101;49.038;8.710;2023-08-06T13:59:55;16.70;99.90
10123;DHT22;5101;49.038;8.710;2023-08-06T14:02:22;16.70;99.90
10123;DHT22;5101;49.038;8.710;2023-08-06T14:04:48;16.70;99.90
10123;DHT22;5101;49.038;8.710;2023-08-06T14:07:13;16.70;99.90
10123;DHT22;5101;49.038;8.710;2023-08-06T14:09:39;16.70;99.90
10123;DHT22;5101;49.038;8.710;2023-08-06T14:12:05;16.80;99.90
10123;DHT22;5101;49.038;8.710;2023-08-06T14:14:31;16.80;99.90
10123;DHT22;5101;49.038;8.710;2023-08-06T14:16:57;16.80;99.90
10123;DHT22;5101;49.038;8.710;2023-08-06T14:19:23;16.80;99.90
10123;DHT22;5101;49.038;8.710;2023-08-06T14:21:49;16.90;99.90
10123;DHT22;5101;49.038;8.710;2023-08-06T14:24:14;16.90;99.90
10123;DHT22;5101;49.038;8.710;2023-08-06T14:26:40;16.80;99.90
10123;DHT22;5101;49.038;8.710;2023-08-06T14:29:06;16.80;99.90
10123;DHT22;5101;49.038;8.710;2023-08-06T14:31:32;16.80;99.90
10123;DHT22;5101;49.038;8.710;2023-08-06T14:33:57;16.80;99.90
10123;DHT22;5101;49.038;8.710;2023-08-06T14:36:23;16.80;99.90
10123;DHT22;5101;49.038;8.710;2023-08-06T14:38:48;16.80;99.90
10123;DHT22;5101;49.038;8.710;2023-08-06T14:41:14;16.80;99.90
10123;DHT22;5101;49.038;8.710;2023-08-06T14:43:39;16.80;99.90
10123;DHT22;5101;49.038;8.710;2023-08-06T14:46:05;16.80;99.90
10123;DHT22;5101;49.038;8.710;2023-08-06T14:48:30;16.80;99.90
10123;DHT22;5101;49.038;8.710;2023-08-06T14:50:56;16.80;99.90
10123;DHT22;5101;49.038;8.710;2023-08-06T14:53:22;16.80;99.90
10123;DHT22;5101;49.038;8.710;2023-08-06T14:55:47;16.80;99.90
10123;DHT22;5101;49.038;8.710;2023-08-06T14:58:13;16.80;99.90
10123;DHT22;5101;49.038;8.710;2023-08-06T15:00:38;16.80;99.90
10123;DHT22;5101;49.038;8.710;2023-08-06T15:03:04;16.80;99.90
10123;DHT22;5101;49.038;8.710;2023-08-06T15:05:29;16.70;99.90
10123;DHT22;5101;49.038;8.710;2023-08-06T15:07:55;16.70;99.90
10123;DHT22;5101;49.038;8.710;2023-08-06T15:10:20;16.60;99.90
10123;DHT22;5101;49.038;8.710;2023-08-06T15:12:46;16.60;99.90
10123;DHT22;5101;49.038;8.710;2023-08-06T15:15:12;16.50;99.90
10123;DHT22;5101;49.038;8.710;2023-08-06T15:17:37;16.50;99.90
10123;DHT22;5101;49.038;8.710;2023-08-06T15:20:04;16.50;99.90
10123;DHT22;5101;49.038;8.710;2023-08-06T15:22:30;16.50;99.90
10123;DHT22;5101;49.038;8.710;2023-08-06T15:25:00;16.50;99.90
10123;DHT22;5101;49.038;8.710;2023-08-06T15:27:26;16.40;99.90
10123;DHT22;5101;49.038;8.710;2023-08-06T15:29:51;16.40;99.90
10123;DHT22;5101;49.038;8.710;2023-08-06T15:32:17;16.40;99.90
10123;DHT22;5101;49.038;8.710;2023-08-06T15:34:42;16.40;99.90
10123;DHT22;5101;49.038;8.710;2023-08-06T15:37:08;16.40;99.90
10123;DHT22;5101;49.038;8.710;2023-08-06T15:39:34;16.40;99.90
10123;DHT22;5101;49.038;8.710;2023-08-06T15:41:59;16.30;99.90
10123;DHT22;5101;49.038;8.710;2023-08-06T15:44:25;16.30;99.90
10123;DHT22;5101;49.038;8.710;2023-08-06T15:46:51;16.30;99.90